Aérodrome :
LOGIN :

S'inscrire | Disclaimer

   EN    FR    IT 

 










Légende :    VFR   VFR Marginal   IFR   IFR Intensif   IFR Très Intensif
Visi : 
Plafond : 
>= 8 km
>= 3000ft
5 à 8 km
1000 à 3000 ft
1500m à 5 km
500 à 1000 ft
800 à 1500m
200 à 500 ft
< 800m
< 200 ft
Symboles :   Orages  Brouillard  Fortes neiges  Fortes précipitations  Vent > 20 kt
SIGMETs :   Divers  Orages  Givrage  Turbulence  Onde Orograph.  Cendres Volcan.






- Altitude de l'aérodrome : 782 ft
- Code IATA : BGY


LIME - Orio al Serio International - Bergamo

DERNIER METAR :
  • 270120Z 06005KT 030V090 9999 FEW040 SCT060 21/16 Q1016 NOSIG

METARs EXPIRÉS :
  • 270050Z 04005KT 360V060 9999 BKN030 22/16 Q1016 NOSIG
  • 270020Z 02004KT 330V060 9999 SCT020 SCT040 22/18 Q1015 NOSIG
  • 262350Z 04003KT 9999 SCT020 BKN040 22/18 Q1016 NOSIG
  • 262320Z VRB02KT 9999 FEW030 BKN040 22/18 Q1016 NOSIG
  • 262250Z 33004KT 290V030 9999 FEW035CB BKN040 22/19 Q1015 NOSIG

TAF TAF LIME
Valide du 27 à 00h jusqu'au 28 à 00h UTC


262300Z 2700/2724 VRB05KT 9999 SCT050
TEMPO 2700/2703 4000 TSRA
TEMPO 2710/2720 4000 TSRA



MET'MAP, la Météo Aéronautique d'un coup d'oeil ! - Copyright ORBIFLY Décembre 2007 - Disclaimer

ORBIFLY MET'MAP TEAM :

Programmation & Développement : Alexandra Zaïnal
Sur une idée originale de : Baudouin d'Aumeries
Assistance à la programmation : Marc-Olivier Méhu
Soutien technique & logistique : Manuel Goepfert

Contact : metmap@orbifly.com




SOURCES & CREDITS :

   NOAA